WetterOnline ( https://www.wetteronline.de )

Wetter aktuell Boizenburg

Aktuelles Wetter: Boizenburg (46m)

6-stündlich | Neueste Meldungen
Ortszeit Temperatur Wetter
Do, 25.04. 20:00 21.4° C wolkig
Do, 25.04. 14:00 21.9° C leicht bewölkt
Do, 25.04. 8:00 11.8° C wolkenlos
Do, 25.04. 2:00 15.6° C wolkig
Mi, 24.04. 20:00 21.5° C wolkenlos
Mi, 24.04. 14:00 21.0° C wolkenlos
Mi, 24.04. 8:00 11.9° C Sprühregen
Mi, 24.04. 2:00 12.4° C wolkenlos
Ortszeit Temperatur Wetter
Fr, 26.04. 1:00 16.5° C bewölkt
Fr, 26.04. 0:50 16.5° C bewölkt
Fr, 26.04. 0:40 16.8° C bewölkt
Fr, 26.04. 0:30 17.3° C bedeckt
Fr, 26.04. 0:20 17.3° C bedeckt
Fr, 26.04. 0:10 17.5° C bedeckt
Fr, 26.04. 0:00 17.8° C bedeckt
Do, 25.04. 23:30 17.5° C bewölkt
Do, 25.04. 23:00 17.6° C wolkig
Do, 25.04. 22:30 18.0° C bewölkt
Do, 25.04. 22:00 18.4° C wolkig
Ortszeit Relative Feuchte Sichtweite
Do, 25.04. 20:00 37% 70 km
Do, 25.04. 14:00 33% 45 km
Do, 25.04. 8:00 81% 30 km
Do, 25.04. 2:00 69% 15 km
Mi, 24.04. 20:00 47% 24 km
Mi, 24.04. 14:00 48% 13 km
Mi, 24.04. 8:00 76% 19 km
Mi, 24.04. 2:00 67% 20 km
Ortszeit Relative Feuchte Sichtweite
Fr, 26.04. 1:00 50% 70 km
Fr, 26.04. 0:50 50% -
Fr, 26.04. 0:40 48% -
Fr, 26.04. 0:30 47% 70 km
Fr, 26.04. 0:20 47% -
Fr, 26.04. 0:10 47% -
Fr, 26.04. 0:00 46% 70 km
Do, 25.04. 23:30 47% 70 km
Do, 25.04. 23:00 47% 70 km
Do, 25.04. 22:30 46% 70 km
Do, 25.04. 22:00 45% 70 km
Ortszeit Niederschlagsmenge Niederschlagsart
Do, 25.04. 20:00 0.0 l/m2 in 12 Std. -
Do, 25.04. 14:00 0.0 l/m2 in 6 Std. -
Do, 25.04. 8:00 0.4 l/m2 in 12 Std. -
Do, 25.04. 2:00 0.0 l/m2 in 6 Std. -
Mi, 24.04. 20:00 0.4 l/m2 in 12 Std. -
Mi, 24.04. 14:00 0.4 l/m2 in 6 Std. -
Mi, 24.04. 8:00 0.1 l/m2 in 12 Std. -
Mi, 24.04. 2:00 0.0 l/m2 in 6 Std. -
Ortszeit Niederschlagsmenge Niederschlagsart
Fr, 26.04. 1:00 0.0 l/m2 in 1 Std. -
Fr, 26.04. 0:50 keine Meldung -
Fr, 26.04. 0:40 keine Meldung -
Fr, 26.04. 0:30 0.0 l/m2 in 1 Std. -
Fr, 26.04. 0:20 keine Meldung -
Fr, 26.04. 0:10 keine Meldung -
Fr, 26.04. 0:00 0.0 l/m2 in 1 Std. -
Do, 25.04. 23:30 0.0 l/m2 in 1 Std. -
Do, 25.04. 23:00 0.0 l/m2 in 1 Std. -
Do, 25.04. 22:30 0.0 l/m2 in 1 Std. -
Do, 25.04. 22:00 0.0 l/m2 in 1 Std. -
Ortszeit Stärke Spitze Richtung
km/h Bft. km/h Grad Sektor
Do, 25.04. 20:00 18 3 32 100° O
Do, 25.04. 14:00 17 3 33 170° S
Do, 25.04. 8:00 - - - - -
Do, 25.04. 2:00 - - - - -
Mi, 24.04. 20:00 - - - - -
Mi, 24.04. 14:00 - - - - -
Mi, 24.04. 8:00 13 3 - 120° SO
Mi, 24.04. 2:00 19 3 52 120° SO
Ortszeit Stärke Spitze Richtung
km/h Bft. km/h Grad Sektor
Fr, 26.04. 1:00 14 3 25 80° O
Fr, 26.04. 0:50 14 3 - 80° O
Fr, 26.04. 0:40 14 3 - 80° O
Fr, 26.04. 0:30 14 3 25 80° O
Fr, 26.04. 0:20 14 3 - 80° O
Fr, 26.04. 0:10 14 3 - 80° O
Fr, 26.04. 0:00 18 3 25 80° O
Do, 25.04. 23:30 17 3 24 80° O
Do, 25.04. 23:00 14 3 25 80° O
Do, 25.04. 22:30 17 3 26 80° O
Do, 25.04. 22:00 17 3 22 80° O
Ortszeit Untergrenze Bedeckung Gattung
total tief tief mittel hoch
Do, 25.04. 20:00 8100 m 8/8 0/8 - - -
Do, 25.04. 14:00 7500 m 3/8 0/8 - - -
Do, 25.04. 8:00 - 0/8 0/8 - - -
Do, 25.04. 2:00 1500 m 8/8 1/8 - - -
Mi, 24.04. 20:00 9000 m 0/8 0/8 - - -
Mi, 24.04. 14:00 9000 m 0/8 0/8 - - -
Mi, 24.04. 8:00 2100 m 8/8 8/8 - - -
Mi, 24.04. 2:00 - 0/8 0/8 - - -
Ortszeit Bedeckungsgrad in Achtel und Wolkenuntergrenze
Fr, 26.04. 1:00 4(3900m) 7(6900m) 8(7500m)
Fr, 26.04. 0:50 4(3900m) 7(6900m) 8(7500m)
Fr, 26.04. 0:40 7(4200m) 8(7200m)
Fr, 26.04. 0:30 6(3900m) 8(4500m) 8(7200m)
Fr, 26.04. 0:20 6(3900m) 8(4500m) 8(7200m)
Fr, 26.04. 0:10 8(3900m) 8(4500m) 8(7200m)
Fr, 26.04. 0:00 8(4200m) 8(4800m) 8(7500m)
Do, 25.04. 23:30 7(3900m) 8(7800m) 8(8700m)
Do, 25.04. 23:00 3(7800m) 8(9000m) 8(9000m)
Do, 25.04. 22:30 4(4500m) 7(8400m) 8(9000m)
Do, 25.04. 22:00 4(8700m) 8(9000m)
Ortszeit Luftdruck NN (hPa) Tendenz (hPa in 3 Std.)
Do, 25.04. 20:00 1009 - 0,6
Do, 25.04. 14:00 1010 - 0,2
Do, 25.04. 8:00 1010 + 2,1
Do, 25.04. 2:00 1006 + 1,1
Mi, 24.04. 20:00 1004 0,0
Mi, 24.04. 14:00 1005 0,0
Mi, 24.04. 8:00 1005 + 0,9
Mi, 24.04. 2:00 1005 - 0,5
Ortszeit Luftdruck NN (hPa) Tendenz (hPa in 3 Std.)
Fr, 26.04. 1:00 1009 - 0,6
Fr, 26.04. 0:50 1009 keine Meldung
Fr, 26.04. 0:40 1009 keine Meldung
Fr, 26.04. 0:30 1009 - 0,7
Fr, 26.04. 0:20 1009 keine Meldung
Fr, 26.04. 0:10 1009 keine Meldung
Fr, 26.04. 0:00 1009 - 0,5
Do, 25.04. 23:30 1009 - 0,5
Do, 25.04. 23:00 1009 - 0,5
Do, 25.04. 22:30 1009 - 0,4
Do, 25.04. 22:00 1009 - 0,3
Ortszeit Schneehöhe (cm)
Do, 25.04. 20:00 0
Do, 25.04. 14:00 0
Do, 25.04. 8:00 0
Do, 25.04. 2:00 0
Mi, 24.04. 20:00 0
Mi, 24.04. 14:00 0
Mi, 24.04. 8:00 0
Mi, 24.04. 2:00 0
Ortszeit Schneehöhe (cm)
Fr, 26.04. 1:00 0
Fr, 26.04. 0:50 0
Fr, 26.04. 0:40 0
Fr, 26.04. 0:30 0
Fr, 26.04. 0:20 0
Fr, 26.04. 0:10 0
Fr, 26.04. 0:00 0
Do, 25.04. 23:30 0
Do, 25.04. 23:00 0
Do, 25.04. 22:30 0
Do, 25.04. 22:00 0
Link zu dieser Seite / Seite empfehlen

Das Wetter in ...